sensor_id;sensor_type;location;lat;lon;timestamp;P1;durP1;ratioP1;P2;durP2;ratioP2
4638;SDS011;2332;38.646;-9.154;2022-11-11T00:00:31;6.30;;;4.47;;
4638;SDS011;2332;38.646;-9.154;2022-11-11T00:02:57;8.80;;;4.60;;
4638;SDS011;2332;38.646;-9.154;2022-11-11T00:05:23;11.53;;;4.33;;
4638;SDS011;2332;38.646;-9.154;2022-11-11T00:07:53;6.00;;;4.10;;
4638;SDS011;2332;38.646;-9.154;2022-11-11T00:10:27;4.60;;;4.20;;
4638;SDS011;2332;38.646;-9.154;2022-11-11T00:12:53;6.60;;;4.07;;
4638;SDS011;2332;38.646;-9.154;2022-11-11T00:15:22;15.40;;;4.90;;
4638;SDS011;2332;38.646;-9.154;2022-11-11T00:17:47;12.67;;;4.53;;
4638;SDS011;2332;38.646;-9.154;2022-11-11T00:20:31;8.57;;;4.20;;
4638;SDS011;2332;38.646;-9.154;2022-11-11T00:23:19;4.43;;;4.03;;
4638;SDS011;2332;38.646;-9.154;2022-11-11T00:26:04;5.60;;;4.50;;
4638;SDS011;2332;38.646;-9.154;2022-11-11T00:28:31;8.07;;;3.90;;
4638;SDS011;2332;38.646;-9.154;2022-11-11T00:31:10;3.93;;;3.43;;
4638;SDS011;2332;38.646;-9.154;2022-11-11T00:33:36;4.37;;;3.80;;
4638;SDS011;2332;38.646;-9.154;2022-11-11T00:36:03;5.23;;;3.90;;
4638;SDS011;2332;38.646;-9.154;2022-11-11T00:38:29;5.37;;;4.50;;
4638;SDS011;2332;38.646;-9.154;2022-11-11T00:41:13;9.47;;;4.10;;
4638;SDS011;2332;38.646;-9.154;2022-11-11T00:43:49;21.03;;;5.13;;
4638;SDS011;2332;38.646;-9.154;2022-11-11T00:46:15;9.80;;;4.53;;
4638;SDS011;2332;38.646;-9.154;2022-11-11T00:48:59;4.73;;;4.37;;
4638;SDS011;2332;38.646;-9.154;2022-11-11T00:51:46;13.00;;;4.47;;
4638;SDS011;2332;38.646;-9.154;2022-11-11T00:54:12;6.20;;;4.80;;
4638;SDS011;2332;38.646;-9.154;2022-11-11T00:56:38;8.97;;;4.70;;
4638;SDS011;2332;38.646;-9.154;2022-11-11T00:59:04;7.73;;;5.00;;
4638;SDS011;2332;38.646;-9.154;2022-11-11T01:01:31;7.27;;;5.23;;
4638;SDS011;2332;38.646;-9.154;2022-11-11T01:03:57;5.37;;;4.87;;
4638;SDS011;2332;38.646;-9.154;2022-11-11T01:06:23;6.70;;;4.80;;
4638;SDS011;2332;38.646;-9.154;2022-11-11T01:08:49;5.77;;;4.30;;
4638;SDS011;2332;38.646;-9.154;2022-11-11T01:11:15;6.83;;;4.40;;
4638;SDS011;2332;38.646;-9.154;2022-11-11T01:13:42;6.00;;;4.03;;
4638;SDS011;2332;38.646;-9.154;2022-11-11T01:16:19;7.00;;;4.73;;
4638;SDS011;2332;38.646;-9.154;2022-11-11T01:18:47;6.20;;;4.70;;
4638;SDS011;2332;38.646;-9.154;2022-11-11T01:21:14;5.93;;;4.83;;
4638;SDS011;2332;38.646;-9.154;2022-11-11T01:23:41;6.87;;;4.57;;
4638;SDS011;2332;38.646;-9.154;2022-11-11T01:26:25;7.83;;;4.97;;
4638;SDS011;2332;38.646;-9.154;2022-11-11T01:28:52;6.40;;;4.37;;
4638;SDS011;2332;38.646;-9.154;2022-11-11T01:31:19;6.97;;;4.73;;
4638;SDS011;2332;38.646;-9.154;2022-11-11T01:33:46;9.83;;;4.87;;
4638;SDS011;2332;38.646;-9.154;2022-11-11T01:36:13;8.63;;;5.20;;
4638;SDS011;2332;38.646;-9.154;2022-11-11T01:38:53;7.67;;;4.63;;
4638;SDS011;2332;38.646;-9.154;2022-11-11T01:41:31;6.60;;;5.40;;
4638;SDS011;2332;38.646;-9.154;2022-11-11T01:52:06;8.87;;;5.80;;
4638;SDS011;2332;38.646;-9.154;2022-11-11T01:54:52;10.63;;;6.90;;
4638;SDS011;2332;38.646;-9.154;2022-11-11T02:00:03;6.23;;;5.60;;
4638;SDS011;2332;38.646;-9.154;2022-11-11T02:02:41;10.03;;;6.77;;
4638;SDS011;2332;38.646;-9.154;2022-11-11T02:05:14;9.60;;;7.27;;
4638;SDS011;2332;38.646;-9.154;2022-11-11T02:08:04;11.00;;;7.00;;
4638;SDS011;2332;38.646;-9.154;2022-11-11T02:10:32;7.93;;;5.87;;
4638;SDS011;2332;38.646;-9.154;2022-11-11T02:12:58;7.87;;;6.93;;
4638;SDS011;2332;38.646;-9.154;2022-11-11T02:15:42;8.77;;;6.40;;
4638;SDS011;2332;38.646;-9.154;2022-11-11T02:18:08;7.60;;;6.00;;
4638;SDS011;2332;38.646;-9.154;2022-11-11T02:20:38;7.20;;;6.27;;
4638;SDS011;2332;38.646;-9.154;2022-11-11T02:25:32;12.10;;;6.33;;
4638;SDS011;2332;38.646;-9.154;2022-11-11T02:27:59;8.53;;;5.80;;
4638;SDS011;2332;38.646;-9.154;2022-11-11T02:30:27;10.17;;;6.00;;
4638;SDS011;2332;38.646;-9.154;2022-11-11T02:32:52;10.90;;;5.60;;
4638;SDS011;2332;38.646;-9.154;2022-11-11T02:35:24;9.10;;;5.27;;
4638;SDS011;2332;38.646;-9.154;2022-11-11T02:37:54;6.87;;;5.83;;
4638;SDS011;2332;38.646;-9.154;2022-11-11T02:40:22;14.90;;;5.40;;
4638;SDS011;2332;38.646;-9.154;2022-11-11T02:42:51;7.70;;;5.70;;
4638;SDS011;2332;38.646;-9.154;2022-11-11T02:45:17;6.63;;;5.50;;
4638;SDS011;2332;38.646;-9.154;2022-11-11T02:47:43;8.47;;;6.30;;
4638;SDS011;2332;38.646;-9.154;2022-11-11T03:00:14;10.20;;;6.03;;
4638;SDS011;2332;38.646;-9.154;2022-11-11T03:02:40;10.33;;;5.43;;
4638;SDS011;2332;38.646;-9.154;2022-11-11T03:05:06;11.63;;;5.13;;
4638;SDS011;2332;38.646;-9.154;2022-11-11T03:10:44;8.40;;;6.10;;
4638;SDS011;2332;38.646;-9.154;2022-11-11T03:13:10;9.60;;;5.83;;
4638;SDS011;2332;38.646;-9.154;2022-11-11T03:22:19;10.27;;;5.83;;
4638;SDS011;2332;38.646;-9.154;2022-11-11T03:24:44;7.73;;;5.40;;
4638;SDS011;2332;38.646;-9.154;2022-11-11T03:27:28;9.80;;;5.17;;
4638;SDS011;2332;38.646;-9.154;2022-11-11T03:29:54;7.40;;;5.70;;
4638;SDS011;2332;38.646;-9.154;2022-11-11T03:32:19;6.03;;;5.30;;
4638;SDS011;2332;38.646;-9.154;2022-11-11T03:34:45;10.50;;;5.37;;
4638;SDS011;2332;38.646;-9.154;2022-11-11T03:37:10;6.27;;;5.67;;
4638;SDS011;2332;38.646;-9.154;2022-11-11T03:39:54;8.07;;;5.03;;
4638;SDS011;2332;38.646;-9.154;2022-11-11T03:42:20;6.70;;;4.83;;
4638;SDS011;2332;38.646;-9.154;2022-11-11T03:44:46;10.10;;;4.90;;
4638;SDS011;2332;38.646;-9.154;2022-11-11T03:47:11;5.10;;;4.70;;
4638;SDS011;2332;38.646;-9.154;2022-11-11T03:49:40;5.73;;;4.07;;
4638;SDS011;2332;38.646;-9.154;2022-11-11T03:52:06;7.73;;;4.67;;
4638;SDS011;2332;38.646;-9.154;2022-11-11T03:54:31;8.67;;;4.23;;
4638;SDS011;2332;38.646;-9.154;2022-11-11T03:56:57;8.00;;;4.37;;
4638;SDS011;2332;38.646;-9.154;2022-11-11T03:59:42;7.00;;;4.90;;
4638;SDS011;2332;38.646;-9.154;2022-11-11T04:02:11;6.10;;;4.27;;
4638;SDS011;2332;38.646;-9.154;2022-11-11T04:04:56;5.20;;;4.70;;
4638;SDS011;2332;38.646;-9.154;2022-11-11T04:07:40;7.10;;;4.73;;
4638;SDS011;2332;38.646;-9.154;2022-11-11T04:10:24;5.20;;;4.70;;
4638;SDS011;2332;38.646;-9.154;2022-11-11T04:12:50;5.60;;;4.77;;
4638;SDS011;2332;38.646;-9.154;2022-11-11T04:15:35;8.70;;;5.00;;
4638;SDS011;2332;38.646;-9.154;2022-11-11T04:18:19;7.87;;;4.40;;
4638;SDS011;2332;38.646;-9.154;2022-11-11T04:21:07;7.83;;;4.80;;
4638;SDS011;2332;38.646;-9.154;2022-11-11T04:23:52;8.10;;;4.83;;
4638;SDS011;2332;38.646;-9.154;2022-11-11T04:26:17;7.00;;;4.80;;
4638;SDS011;2332;38.646;-9.154;2022-11-11T04:28:43;4.53;;;4.13;;
4638;SDS011;2332;38.646;-9.154;2022-11-11T04:31:27;7.07;;;4.80;;
4638;SDS011;2332;38.646;-9.154;2022-11-11T04:33:52;5.20;;;4.53;;
4638;SDS011;2332;38.646;-9.154;2022-11-11T04:36:18;7.00;;;4.57;;
4638;SDS011;2332;38.646;-9.154;2022-11-11T04:38:44;11.47;;;4.70;;
4638;SDS011;2332;38.646;-9.154;2022-11-11T04:41:28;4.93;;;4.50;;
4638;SDS011;2332;38.646;-9.154;2022-11-11T04:43:53;7.43;;;4.70;;
4638;SDS011;2332;38.646;-9.154;2022-11-11T04:46:37;6.03;;;4.50;;
4638;SDS011;2332;38.646;-9.154;2022-11-11T04:49:03;7.67;;;4.43;;
4638;SDS011;2332;38.646;-9.154;2022-11-11T04:51:28;6.57;;;4.30;;
4638;SDS011;2332;38.646;-9.154;2022-11-11T04:54:14;7.60;;;4.40;;
4638;SDS011;2332;38.646;-9.154;2022-11-11T04:56:39;4.80;;;4.33;;
4638;SDS011;2332;38.646;-9.154;2022-11-11T04:59:15;9.97;;;4.80;;
4638;SDS011;2332;38.646;-9.154;2022-11-11T05:01:40;8.10;;;4.40;;
4638;SDS011;2332;38.646;-9.154;2022-11-11T05:04:25;5.23;;;3.70;;
4638;SDS011;2332;38.646;-9.154;2022-11-11T05:06:50;5.90;;;4.20;;
4638;SDS011;2332;38.646;-9.154;2022-11-11T05:09:36;7.80;;;3.93;;
4638;SDS011;2332;38.646;-9.154;2022-11-11T05:12:02;7.00;;;3.70;;
4638;SDS011;2332;38.646;-9.154;2022-11-11T05:14:27;7.10;;;3.77;;
4638;SDS011;2332;38.646;-9.154;2022-11-11T05:17:12;6.13;;;4.70;;
4638;SDS011;2332;38.646;-9.154;2022-11-11T05:19:55;6.63;;;4.20;;
4638;SDS011;2332;38.646;-9.154;2022-11-11T05:22:40;13.33;;;4.43;;
4638;SDS011;2332;38.646;-9.154;2022-11-11T05:25:07;12.90;;;4.47;;
4638;SDS011;2332;38.646;-9.154;2022-11-11T05:27:53;4.87;;;4.13;;
4638;SDS011;2332;38.646;-9.154;2022-11-11T05:30:20;5.83;;;4.30;;
4638;SDS011;2332;38.646;-9.154;2022-11-11T05:32:46;8.60;;;4.23;;
4638;SDS011;2332;38.646;-9.154;2022-11-11T05:35:12;4.43;;;4.03;;
4638;SDS011;2332;38.646;-9.154;2022-11-11T05:37:38;5.40;;;4.07;;
4638;SDS011;2332;38.646;-9.154;2022-11-11T05:40:03;6.10;;;4.10;;
4638;SDS011;2332;38.646;-9.154;2022-11-11T05:42:30;4.23;;;3.70;;
4638;SDS011;2332;38.646;-9.154;2022-11-11T05:44:55;4.33;;;3.93;;
4638;SDS011;2332;38.646;-9.154;2022-11-11T05:47:21;6.83;;;3.63;;
4638;SDS011;2332;38.646;-9.154;2022-11-11T05:49:46;4.57;;;3.73;;
4638;SDS011;2332;38.646;-9.154;2022-11-11T05:52:12;4.93;;;4.27;;
4638;SDS011;2332;38.646;-9.154;2022-11-11T05:54:40;7.73;;;4.40;;
4638;SDS011;2332;38.646;-9.154;2022-11-11T05:57:06;4.87;;;4.00;;
4638;SDS011;2332;38.646;-9.154;2022-11-11T05:59:32;4.27;;;3.87;;
4638;SDS011;2332;38.646;-9.154;2022-11-11T06:01:57;5.07;;;3.97;;
4638;SDS011;2332;38.646;-9.154;2022-11-11T06:04:23;5.83;;;4.10;;
4638;SDS011;2332;38.646;-9.154;2022-11-11T06:06:49;4.70;;;4.30;;
4638;SDS011;2332;38.646;-9.154;2022-11-11T06:09:14;3.93;;;3.53;;
4638;SDS011;2332;38.646;-9.154;2022-11-11T06:11:40;4.80;;;3.80;;
4638;SDS011;2332;38.646;-9.154;2022-11-11T06:14:05;6.30;;;4.33;;
4638;SDS011;2332;38.646;-9.154;2022-11-11T06:16:31;9.17;;;3.90;;
4638;SDS011;2332;38.646;-9.154;2022-11-11T06:18:57;5.80;;;4.13;;
4638;SDS011;2332;38.646;-9.154;2022-11-11T06:21:24;9.93;;;4.03;;
4638;SDS011;2332;38.646;-9.154;2022-11-11T06:23:50;4.40;;;3.27;;
4638;SDS011;2332;38.646;-9.154;2022-11-11T06:26:16;6.23;;;4.40;;
4638;SDS011;2332;38.646;-9.154;2022-11-11T06:28:43;3.63;;;3.40;;
4638;SDS011;2332;38.646;-9.154;2022-11-11T06:31:12;4.50;;;4.20;;
4638;SDS011;2332;38.646;-9.154;2022-11-11T06:33:40;8.20;;;4.30;;
4638;SDS011;2332;38.646;-9.154;2022-11-11T06:36:06;5.13;;;4.07;;
4638;SDS011;2332;38.646;-9.154;2022-11-11T06:38:33;4.50;;;3.50;;
4638;SDS011;2332;38.646;-9.154;2022-11-11T06:40:58;4.00;;;3.70;;
4638;SDS011;2332;38.646;-9.154;2022-11-11T06:43:24;4.40;;;4.00;;
4638;SDS011;2332;38.646;-9.154;2022-11-11T06:45:50;5.30;;;3.93;;
4638;SDS011;2332;38.646;-9.154;2022-11-11T06:48:17;5.90;;;3.97;;
4638;SDS011;2332;38.646;-9.154;2022-11-11T06:50:43;5.80;;;3.87;;
4638;SDS011;2332;38.646;-9.154;2022-11-11T06:53:09;3.30;;;3.10;;
4638;SDS011;2332;38.646;-9.154;2022-11-11T06:55:37;7.33;;;3.30;;
4638;SDS011;2332;38.646;-9.154;2022-11-11T06:58:03;9.00;;;4.00;;
4638;SDS011;2332;38.646;-9.154;2022-11-11T07:00:33;7.40;;;3.67;;
4638;SDS011;2332;38.646;-9.154;2022-11-11T07:03:00;3.83;;;3.50;;
4638;SDS011;2332;38.646;-9.154;2022-11-11T07:05:26;4.53;;;3.60;;
4638;SDS011;2332;38.646;-9.154;2022-11-11T07:07:51;4.07;;;3.53;;
4638;SDS011;2332;38.646;-9.154;2022-11-11T07:10:17;8.17;;;4.30;;
4638;SDS011;2332;38.646;-9.154;2022-11-11T07:12:43;6.47;;;3.40;;
4638;SDS011;2332;38.646;-9.154;2022-11-11T07:15:09;12.73;;;3.87;;
4638;SDS011;2332;38.646;-9.154;2022-11-11T07:17:35;14.13;;;4.10;;
4638;SDS011;2332;38.646;-9.154;2022-11-11T07:20:00;4.93;;;3.73;;
4638;SDS011;2332;38.646;-9.154;2022-11-11T07:22:26;5.13;;;3.60;;
4638;SDS011;2332;38.646;-9.154;2022-11-11T07:24:51;5.93;;;3.60;;
4638;SDS011;2332;38.646;-9.154;2022-11-11T07:27:17;3.57;;;3.30;;
4638;SDS011;2332;38.646;-9.154;2022-11-11T07:29:42;4.83;;;3.10;;
4638;SDS011;2332;38.646;-9.154;2022-11-11T07:32:08;3.47;;;3.17;;
4638;SDS011;2332;38.646;-9.154;2022-11-11T07:34:34;3.73;;;3.23;;
4638;SDS011;2332;38.646;-9.154;2022-11-11T07:36:59;4.67;;;3.30;;
4638;SDS011;2332;38.646;-9.154;2022-11-11T07:39:25;4.30;;;3.90;;
4638;SDS011;2332;38.646;-9.154;2022-11-11T07:41:51;7.43;;;2.97;;
4638;SDS011;2332;38.646;-9.154;2022-11-11T07:44:16;3.97;;;3.47;;
4638;SDS011;2332;38.646;-9.154;2022-11-11T07:46:42;4.00;;;2.93;;
4638;SDS011;2332;38.646;-9.154;2022-11-11T07:49:07;3.73;;;2.87;;
4638;SDS011;2332;38.646;-9.154;2022-11-11T07:51:35;3.60;;;3.00;;
4638;SDS011;2332;38.646;-9.154;2022-11-11T07:54:00;3.37;;;3.07;;
4638;SDS011;2332;38.646;-9.154;2022-11-11T07:56:26;4.10;;;3.10;;
4638;SDS011;2332;38.646;-9.154;2022-11-11T07:58:52;5.30;;;3.60;;
4638;SDS011;2332;38.646;-9.154;2022-11-11T08:01:18;3.30;;;3.00;;
4638;SDS011;2332;38.646;-9.154;2022-11-11T08:03:43;4.53;;;3.43;;
4638;SDS011;2332;38.646;-9.154;2022-11-11T08:06:15;9.43;;;4.20;;
4638;SDS011;2332;38.646;-9.154;2022-11-11T08:08:42;4.30;;;3.43;;
4638;SDS011;2332;38.646;-9.154;2022-11-11T08:11:08;5.50;;;3.03;;
4638;SDS011;2332;38.646;-9.154;2022-11-11T08:13:34;3.30;;;3.00;;
4638;SDS011;2332;38.646;-9.154;2022-11-11T08:16:09;4.20;;;2.77;;
4638;SDS011;2332;38.646;-9.154;2022-11-11T08:18:35;6.03;;;3.03;;
4638;SDS011;2332;38.646;-9.154;2022-11-11T08:21:02;3.03;;;2.83;;
4638;SDS011;2332;38.646;-9.154;2022-11-11T08:23:28;3.10;;;2.80;;
4638;SDS011;2332;38.646;-9.154;2022-11-11T08:26:00;4.83;;;2.83;;
4638;SDS011;2332;38.646;-9.154;2022-11-11T08:28:28;2.83;;;2.50;;
4638;SDS011;2332;38.646;-9.154;2022-11-11T08:30:57;3.77;;;2.53;;
4638;SDS011;2332;38.646;-9.154;2022-11-11T08:33:23;2.73;;;2.53;;
4638;SDS011;2332;38.646;-9.154;2022-11-11T08:35:50;2.90;;;2.70;;
4638;SDS011;2332;38.646;-9.154;2022-11-11T08:38:18;3.37;;;3.17;;
4638;SDS011;2332;38.646;-9.154;2022-11-11T08:40:44;3.40;;;2.97;;
4638;SDS011;2332;38.646;-9.154;2022-11-11T08:43:10;2.80;;;2.60;;
4638;SDS011;2332;38.646;-9.154;2022-11-11T08:45:36;2.90;;;2.30;;
4638;SDS011;2332;38.646;-9.154;2022-11-11T08:48:01;5.20;;;2.33;;
4638;SDS011;2332;38.646;-9.154;2022-11-11T08:50:28;2.77;;;2.50;;
4638;SDS011;2332;38.646;-9.154;2022-11-11T08:52:53;3.70;;;2.60;;
4638;SDS011;2332;38.646;-9.154;2022-11-11T08:55:19;2.97;;;2.70;;
4638;SDS011;2332;38.646;-9.154;2022-11-11T08:57:45;3.00;;;2.80;;
4638;SDS011;2332;38.646;-9.154;2022-11-11T09:00:11;2.63;;;2.43;;
4638;SDS011;2332;38.646;-9.154;2022-11-11T09:02:37;5.53;;;2.40;;
4638;SDS011;2332;38.646;-9.154;2022-11-11T09:05:03;2.90;;;2.53;;
4638;SDS011;2332;38.646;-9.154;2022-11-11T09:07:30;3.30;;;2.50;;
4638;SDS011;2332;38.646;-9.154;2022-11-11T09:09:56;3.90;;;2.73;;
4638;SDS011;2332;38.646;-9.154;2022-11-11T09:12:22;5.03;;;2.70;;
4638;SDS011;2332;38.646;-9.154;2022-11-11T09:14:47;2.63;;;2.53;;
4638;SDS011;2332;38.646;-9.154;2022-11-11T09:17:14;3.10;;;2.40;;
4638;SDS011;2332;38.646;-9.154;2022-11-11T09:19:40;4.67;;;2.73;;
4638;SDS011;2332;38.646;-9.154;2022-11-11T09:22:06;3.90;;;2.97;;
4638;SDS011;2332;38.646;-9.154;2022-11-11T09:24:31;3.70;;;3.03;;
4638;SDS011;2332;38.646;-9.154;2022-11-11T09:26:57;4.13;;;2.70;;
4638;SDS011;2332;38.646;-9.154;2022-11-11T09:29:25;4.03;;;3.00;;
4638;SDS011;2332;38.646;-9.154;2022-11-11T09:31:51;3.10;;;2.30;;
4638;SDS011;2332;38.646;-9.154;2022-11-11T09:34:16;3.90;;;2.83;;
4638;SDS011;2332;38.646;-9.154;2022-11-11T09:36:42;3.23;;;2.97;;
4638;SDS011;2332;38.646;-9.154;2022-11-11T09:39:08;4.73;;;3.20;;
4638;SDS011;2332;38.646;-9.154;2022-11-11T09:44:29;3.23;;;3.03;;
4638;SDS011;2332;38.646;-9.154;2022-11-11T09:52:36;3.47;;;2.93;;
4638;SDS011;2332;38.646;-9.154;2022-11-11T10:00:31;9.23;;;2.93;;
4638;SDS011;2332;38.646;-9.154;2022-11-11T10:10:49;3.40;;;3.20;;
4638;SDS011;2332;38.646;-9.154;2022-11-11T10:21:16;6.40;;;3.00;;
4638;SDS011;2332;38.646;-9.154;2022-11-11T10:23:48;6.83;;;3.17;;
4638;SDS011;2332;38.646;-9.154;2022-11-11T10:28:43;3.10;;;3.00;;
4638;SDS011;2332;38.646;-9.154;2022-11-11T10:31:12;4.70;;;3.37;;
4638;SDS011;2332;38.646;-9.154;2022-11-11T10:36:27;3.97;;;3.53;;
4638;SDS011;2332;38.646;-9.154;2022-11-11T10:38:57;6.10;;;3.30;;
4638;SDS011;2332;38.646;-9.154;2022-11-11T10:41:35;7.50;;;3.60;;
4638;SDS011;2332;38.646;-9.154;2022-11-11T10:44:19;3.30;;;3.03;;
4638;SDS011;2332;38.646;-9.154;2022-11-11T10:47:07;3.10;;;2.90;;
4638;SDS011;2332;38.646;-9.154;2022-11-11T10:49:40;4.03;;;3.33;;
4638;SDS011;2332;38.646;-9.154;2022-11-11T10:52:24;8.63;;;4.00;;
4638;SDS011;2332;38.646;-9.154;2022-11-11T10:57:30;16.07;;;9.70;;
4638;SDS011;2332;38.646;-9.154;2022-11-11T11:00:07;9.60;;;6.60;;
4638;SDS011;2332;38.646;-9.154;2022-11-11T11:02:44;6.63;;;5.27;;
4638;SDS011;2332;38.646;-9.154;2022-11-11T11:08:10;4.87;;;3.80;;
4638;SDS011;2332;38.646;-9.154;2022-11-11T11:10:40;4.20;;;3.50;;
4638;SDS011;2332;38.646;-9.154;2022-11-11T11:13:36;3.57;;;3.37;;
4638;SDS011;2332;38.646;-9.154;2022-11-11T11:22:05;3.73;;;3.43;;
4638;SDS011;2332;38.646;-9.154;2022-11-11T11:24:32;3.57;;;3.27;;
4638;SDS011;2332;38.646;-9.154;2022-11-11T11:27:01;6.07;;;3.43;;
4638;SDS011;2332;38.646;-9.154;2022-11-11T11:29:43;9.80;;;3.90;;
4638;SDS011;2332;38.646;-9.154;2022-11-11T11:32:19;4.27;;;3.90;;
4638;SDS011;2332;38.646;-9.154;2022-11-11T11:34:47;6.83;;;4.97;;
4638;SDS011;2332;38.646;-9.154;2022-11-11T11:37:17;6.97;;;4.60;;
4638;SDS011;2332;38.646;-9.154;2022-11-11T11:39:45;8.60;;;5.60;;
4638;SDS011;2332;38.646;-9.154;2022-11-11T11:44:55;4.20;;;3.80;;
4638;SDS011;2332;38.646;-9.154;2022-11-11T11:47:39;3.87;;;3.33;;
4638;SDS011;2332;38.646;-9.154;2022-11-11T11:50:16;5.93;;;3.93;;
4638;SDS011;2332;38.646;-9.154;2022-11-11T11:55:29;5.23;;;3.60;;
4638;SDS011;2332;38.646;-9.154;2022-11-11T11:58:12;7.47;;;3.83;;
4638;SDS011;2332;38.646;-9.154;2022-11-11T12:01:16;4.30;;;3.63;;
4638;SDS011;2332;38.646;-9.154;2022-11-11T12:06:33;3.80;;;3.50;;
4638;SDS011;2332;38.646;-9.154;2022-11-11T12:11:52;4.10;;;3.23;;
4638;SDS011;2332;38.646;-9.154;2022-11-11T12:20:03;4.33;;;3.87;;
4638;SDS011;2332;38.646;-9.154;2022-11-11T12:30:37;5.00;;;3.40;;
4638;SDS011;2332;38.646;-9.154;2022-11-11T12:44:33;4.23;;;3.83;;
4638;SDS011;2332;38.646;-9.154;2022-11-11T12:47:24;20.50;;;3.57;;
4638;SDS011;2332;38.646;-9.154;2022-11-11T12:49:56;6.17;;;3.97;;
4638;SDS011;2332;38.646;-9.154;2022-11-11T13:01:01;4.70;;;3.57;;
4638;SDS011;2332;38.646;-9.154;2022-11-11T13:11:13;4.30;;;3.90;;
4638;SDS011;2332;38.646;-9.154;2022-11-11T13:13:54;4.30;;;3.27;;
4638;SDS011;2332;38.646;-9.154;2022-11-11T13:16:49;2.73;;;2.53;;
4638;SDS011;2332;38.646;-9.154;2022-11-11T13:21:54;3.37;;;3.07;;
4638;SDS011;2332;38.646;-9.154;2022-11-11T13:24:23;5.63;;;3.07;;
4638;SDS011;2332;38.646;-9.154;2022-11-11T13:26:51;4.43;;;3.17;;
4638;SDS011;2332;38.646;-9.154;2022-11-11T13:32:53;4.00;;;2.97;;
4638;SDS011;2332;38.646;-9.154;2022-11-11T13:35:28;4.20;;;3.07;;
4638;SDS011;2332;38.646;-9.154;2022-11-11T13:38:00;3.77;;;3.37;;
4638;SDS011;2332;38.646;-9.154;2022-11-11T13:42:58;3.20;;;3.00;;
4638;SDS011;2332;38.646;-9.154;2022-11-11T13:45:28;5.13;;;3.30;;
4638;SDS011;2332;38.646;-9.154;2022-11-11T13:48:01;3.73;;;3.50;;
4638;SDS011;2332;38.646;-9.154;2022-11-11T13:50:31;5.40;;;3.53;;
4638;SDS011;2332;38.646;-9.154;2022-11-11T13:53:06;3.03;;;2.83;;
4638;SDS011;2332;38.646;-9.154;2022-11-11T13:55:43;7.57;;;4.10;;
4638;SDS011;2332;38.646;-9.154;2022-11-11T13:58:28;5.30;;;2.70;;
4638;SDS011;2332;38.646;-9.154;2022-11-11T14:01:07;3.10;;;2.77;;
4638;SDS011;2332;38.646;-9.154;2022-11-11T14:04:19;9.53;;;3.03;;
4638;SDS011;2332;38.646;-9.154;2022-11-11T14:08:52;3.40;;;3.03;;
4638;SDS011;2332;38.646;-9.154;2022-11-11T14:13:57;2.87;;;2.67;;
4638;SDS011;2332;38.646;-9.154;2022-11-11T14:18:58;3.50;;;3.30;;
4638;SDS011;2332;38.646;-9.154;2022-11-11T14:21:54;4.03;;;3.20;;
4638;SDS011;2332;38.646;-9.154;2022-11-11T14:24:42;3.43;;;3.13;;
4638;SDS011;2332;38.646;-9.154;2022-11-11T14:29:56;3.97;;;3.20;;
4638;SDS011;2332;38.646;-9.154;2022-11-11T14:38:26;3.37;;;3.07;;
4638;SDS011;2332;38.646;-9.154;2022-11-11T14:40:57;6.40;;;3.30;;
4638;SDS011;2332;38.646;-9.154;2022-11-11T14:49:51;2.67;;;2.47;;
4638;SDS011;2332;38.646;-9.154;2022-11-11T14:57:49;2.60;;;2.43;;
4638;SDS011;2332;38.646;-9.154;2022-11-11T15:00:20;2.30;;;2.10;;
4638;SDS011;2332;38.646;-9.154;2022-11-11T15:03:06;5.97;;;2.40;;
4638;SDS011;2332;38.646;-9.154;2022-11-11T15:08:16;3.07;;;2.27;;
4638;SDS011;2332;38.646;-9.154;2022-11-11T15:19:47;6.03;;;2.33;;
4638;SDS011;2332;38.646;-9.154;2022-11-11T15:22:28;2.17;;;2.00;;
4638;SDS011;2332;38.646;-9.154;2022-11-11T15:36:09;4.70;;;3.17;;
4638;SDS011;2332;38.646;-9.154;2022-11-11T15:38:50;2.60;;;2.40;;
4638;SDS011;2332;38.646;-9.154;2022-11-11T15:41:36;4.07;;;2.10;;
4638;SDS011;2332;38.646;-9.154;2022-11-11T15:44:07;2.37;;;2.17;;
4638;SDS011;2332;38.646;-9.154;2022-11-11T15:46:37;5.63;;;2.83;;
4638;SDS011;2332;38.646;-9.154;2022-11-11T15:49:10;4.03;;;2.67;;
4638;SDS011;2332;38.646;-9.154;2022-11-11T15:51:59;2.63;;;2.40;;
4638;SDS011;2332;38.646;-9.154;2022-11-11T15:54:24;2.67;;;2.47;;
4638;SDS011;2332;38.646;-9.154;2022-11-11T15:56:50;4.53;;;2.40;;
4638;SDS011;2332;38.646;-9.154;2022-11-11T15:59:21;3.70;;;2.33;;
4638;SDS011;2332;38.646;-9.154;2022-11-11T16:01:49;4.97;;;2.73;;
4638;SDS011;2332;38.646;-9.154;2022-11-11T16:04:19;4.60;;;3.30;;
4638;SDS011;2332;38.646;-9.154;2022-11-11T16:06:47;2.53;;;2.33;;
4638;SDS011;2332;38.646;-9.154;2022-11-11T16:09:13;6.30;;;2.80;;
4638;SDS011;2332;38.646;-9.154;2022-11-11T16:11:42;2.30;;;2.03;;
4638;SDS011;2332;38.646;-9.154;2022-11-11T16:14:17;7.67;;;4.70;;
4638;SDS011;2332;38.646;-9.154;2022-11-11T16:16:46;10.63;;;6.43;;
4638;SDS011;2332;38.646;-9.154;2022-11-11T16:22:46;5.43;;;3.83;;
4638;SDS011;2332;38.646;-9.154;2022-11-11T16:24:53;2.90;;;2.70;;
4638;SDS011;2332;38.646;-9.154;2022-11-11T16:27:21;3.77;;;3.13;;
4638;SDS011;2332;38.646;-9.154;2022-11-11T16:29:50;4.57;;;2.37;;
4638;SDS011;2332;38.646;-9.154;2022-11-11T16:34:43;5.90;;;3.10;;
4638;SDS011;2332;38.646;-9.154;2022-11-11T16:37:10;4.63;;;2.10;;
4638;SDS011;2332;38.646;-9.154;2022-11-11T16:39:37;2.23;;;2.13;;
4638;SDS011;2332;38.646;-9.154;2022-11-11T16:42:16;2.37;;;2.27;;
4638;SDS011;2332;38.646;-9.154;2022-11-11T16:50:04;3.37;;;2.47;;
4638;SDS011;2332;38.646;-9.154;2022-11-11T16:52:39;4.33;;;2.13;;
4638;SDS011;2332;38.646;-9.154;2022-11-11T16:55:07;2.60;;;2.13;;
4638;SDS011;2332;38.646;-9.154;2022-11-11T16:57:34;3.23;;;2.67;;
4638;SDS011;2332;38.646;-9.154;2022-11-11T17:00:07;3.33;;;2.67;;
4638;SDS011;2332;38.646;-9.154;2022-11-11T17:02:38;3.03;;;2.80;;
4638;SDS011;2332;38.646;-9.154;2022-11-11T17:05:03;8.40;;;2.30;;
4638;SDS011;2332;38.646;-9.154;2022-11-11T17:07:37;3.00;;;2.80;;
4638;SDS011;2332;38.646;-9.154;2022-11-11T17:12:33;5.57;;;2.67;;
4638;SDS011;2332;38.646;-9.154;2022-11-11T17:15:00;4.20;;;2.50;;
4638;SDS011;2332;38.646;-9.154;2022-11-11T17:17:28;6.23;;;3.30;;
4638;SDS011;2332;38.646;-9.154;2022-11-11T17:20:04;5.27;;;3.83;;
4638;SDS011;2332;38.646;-9.154;2022-11-11T17:22:32;8.13;;;6.43;;
4638;SDS011;2332;38.646;-9.154;2022-11-11T17:24:58;13.03;;;9.43;;
4638;SDS011;2332;38.646;-9.154;2022-11-11T17:27:23;16.80;;;10.37;;
4638;SDS011;2332;38.646;-9.154;2022-11-11T17:29:49;9.40;;;8.50;;
4638;SDS011;2332;38.646;-9.154;2022-11-11T17:32:14;10.10;;;5.43;;
4638;SDS011;2332;38.646;-9.154;2022-11-11T17:34:40;7.77;;;4.60;;
4638;SDS011;2332;38.646;-9.154;2022-11-11T17:37:06;4.33;;;3.73;;
4638;SDS011;2332;38.646;-9.154;2022-11-11T17:39:31;8.93;;;5.97;;
4638;SDS011;2332;38.646;-9.154;2022-11-11T17:41:57;6.60;;;5.87;;
4638;SDS011;2332;38.646;-9.154;2022-11-11T17:44:22;7.17;;;5.63;;
4638;SDS011;2332;38.646;-9.154;2022-11-11T17:46:48;9.70;;;6.47;;
4638;SDS011;2332;38.646;-9.154;2022-11-11T17:49:16;6.70;;;5.60;;
4638;SDS011;2332;38.646;-9.154;2022-11-11T17:51:41;8.53;;;6.37;;
4638;SDS011;2332;38.646;-9.154;2022-11-11T17:54:07;12.80;;;7.20;;
4638;SDS011;2332;38.646;-9.154;2022-11-11T17:56:34;9.40;;;6.77;;
4638;SDS011;2332;38.646;-9.154;2022-11-11T17:59:00;8.63;;;5.40;;
4638;SDS011;2332;38.646;-9.154;2022-11-11T18:01:25;8.70;;;5.67;;
4638;SDS011;2332;38.646;-9.154;2022-11-11T18:03:55;11.30;;;5.50;;
4638;SDS011;2332;38.646;-9.154;2022-11-11T18:06:21;8.30;;;4.60;;
4638;SDS011;2332;38.646;-9.154;2022-11-11T18:08:47;8.10;;;4.33;;
4638;SDS011;2332;38.646;-9.154;2022-11-11T18:11:12;12.07;;;4.00;;
4638;SDS011;2332;38.646;-9.154;2022-11-11T18:13:38;6.50;;;4.37;;
4638;SDS011;2332;38.646;-9.154;2022-11-11T18:16:03;10.33;;;5.43;;
4638;SDS011;2332;38.646;-9.154;2022-11-11T18:18:33;5.47;;;4.27;;
4638;SDS011;2332;38.646;-9.154;2022-11-11T18:21:00;5.07;;;4.67;;
4638;SDS011;2332;38.646;-9.154;2022-11-11T18:23:30;7.43;;;5.03;;
4638;SDS011;2332;38.646;-9.154;2022-11-11T18:25:57;6.60;;;5.50;;
4638;SDS011;2332;38.646;-9.154;2022-11-11T18:28:22;6.90;;;5.83;;
4638;SDS011;2332;38.646;-9.154;2022-11-11T18:30:48;11.80;;;7.30;;
4638;SDS011;2332;38.646;-9.154;2022-11-11T18:33:14;11.63;;;8.17;;
4638;SDS011;2332;38.646;-9.154;2022-11-11T18:35:39;9.70;;;5.97;;
4638;SDS011;2332;38.646;-9.154;2022-11-11T18:38:05;5.50;;;4.97;;
4638;SDS011;2332;38.646;-9.154;2022-11-11T18:40:30;7.27;;;3.93;;
4638;SDS011;2332;38.646;-9.154;2022-11-11T18:42:56;10.03;;;4.10;;